Time;durP1;ratioP1;P1;durP2;ratioP2;P2;SDS_P1;SDS_P2;PMS_P1;PMS_P2;Temp;Humidity;BMP_temperature;BMP_pressure;BME280_temperature;BME280_humidity;BME280_pressure;Samples;Min_cycle;Max_cycle;Signal;HPM_P1;HPM_P2
2022/04/30 00:02:14;;;;;;;13.77;8.82;;;;;;;;;;5092673;28;20032;-75
2022/04/30 00:04:41;;;;;;;15.18;9.07;;;;;;;;;;5085252;28;20429;-75
2022/04/30 00:07:08;;;;;;;14.75;9.25;;;;;;;;;;5093914;28;20061;-75
2022/04/30 00:09:34;;;;;;;16.77;10.18;;;;;;;;;;5093570;28;20126;-75
2022/04/30 00:12:01;;;;;;;15.73;8.90;;;;;;;;;;5077071;28;20047;-75
2022/04/30 00:14:27;;;;;;;14.63;8.88;;;;;;;;;;5093718;28;20430;-75
2022/04/30 00:16:54;;;;;;;14.02;8.30;;;;;;;;;;5093971;28;20484;-75
2022/04/30 00:19:21;;;;;;;12.95;8.07;;;;;;;;;;5093354;28;20040;-75
2022/04/30 00:21:48;;;;;;;17.00;8.93;;;;;;;;;;5093546;28;20048;-75
2022/04/30 00:24:17;;;;;;;15.85;9.05;;;;;;;;;;5093966;28;20043;-75
2022/04/30 00:26:43;;;;;;;13.68;9.00;;;;;;;;;;5094099;28;20189;-75
2022/04/30 00:29:10;;;;;;;15.82;9.82;;;;;;;;;;5093501;28;20043;-75
2022/04/30 00:31:37;;;;;;;14.65;9.50;;;;;;;;;;5093739;28;20517;-75
2022/04/30 00:34:04;;;;;;;15.35;9.75;;;;;;;;;;5093187;28;20048;-75
2022/04/30 00:36:30;;;;;;;16.42;9.52;;;;;;;;;;5093510;28;20093;-75
2022/04/30 00:38:56;;;;;;;17.73;9.82;;;;;;;;;;5093161;28;20068;-75
2022/04/30 00:41:23;;;;;;;16.58;9.68;;;;;;;;;;5093708;28;20410;-75
2022/04/30 00:43:54;;;;;;;14.77;9.18;;;;;;;;;;5093548;28;20079;-75
2022/04/30 00:46:22;;;;;;;17.08;9.90;;;;;;;;;;5093170;28;20036;-75
2022/04/30 00:48:49;;;;;;;15.77;9.43;;;;;;;;;;5093430;28;20040;-75
2022/04/30 00:51:16;;;;;;;16.80;9.82;;;;;;;;;;5093436;28;20101;-75
2022/04/30 00:53:47;;;;;;;17.50;9.98;;;;;;;;;;5093211;28;20048;-75
2022/04/30 00:56:14;;;;;;;16.50;9.50;;;;;;;;;;5094565;28;20036;-75
2022/04/30 00:58:41;;;;;;;17.35;9.75;;;;;;;;;;5093425;28;20101;-75
2022/04/30 01:01:07;;;;;;;17.25;9.88;;;;;;;;;;5093180;28;20063;-75
2022/04/30 01:03:34;;;;;;;16.30;9.98;;;;;;;;;;5093440;28;20094;-75
2022/04/30 01:06:00;;;;;;;16.92;10.35;;;;;;;;;;5091311;28;20042;-75
2022/04/30 01:08:28;;;;;;;17.80;9.85;;;;;;;;;;5090054;28;20048;-75
2022/04/30 01:10:55;;;;;;;17.48;10.80;;;;;;;;;;5090319;28;20046;-75
2022/04/30 01:13:21;;;;;;;18.15;11.50;;;;;;;;;;5090258;28;20087;-75
2022/04/30 01:15:47;;;;;;;17.83;11.05;;;;;;;;;;5089986;28;20123;-75
2022/04/30 01:18:14;;;;;;;19.88;10.80;;;;;;;;;;5089423;28;20040;-75
2022/04/30 01:20:46;;;;;;;17.90;10.60;;;;;;;;;;5089535;28;20071;-77
2022/04/30 01:23:13;;;;;;;18.92;10.85;;;;;;;;;;5088128;28;20036;-75
2022/04/30 01:25:42;;;;;;;17.75;10.55;;;;;;;;;;5086545;28;20042;-75
2022/04/30 01:28:11;;;;;;;18.95;10.90;;;;;;;;;;5089808;28;20611;-75
2022/04/30 01:30:37;;;;;;;17.70;11.90;;;;;;;;;;5089313;28;20054;-75
2022/04/30 01:38:34;;;;;;;17.15;10.90;;;;;;;;;;5089802;28;20411;-75
2022/04/30 01:41:00;;;;;;;16.52;11.35;;;;;;;;;;5091198;28;20173;-75
2022/04/30 01:43:27;;;;;;;16.10;10.10;;;;;;;;;;5089214;28;20044;-75
2022/04/30 01:45:53;;;;;;;23.92;12.02;;;;;;;;;;5089801;28;20044;-75
2022/04/30 01:48:20;;;;;;;16.13;9.70;;;;;;;;;;5089112;28;20051;-75
2022/04/30 01:50:46;;;;;;;18.42;10.88;;;;;;;;;;5072774;28;20434;-75
2022/04/30 01:53:13;;;;;;;18.15;10.98;;;;;;;;;;5089373;28;20036;-75
2022/04/30 01:55:39;;;;;;;19.23;11.48;;;;;;;;;;5084356;28;20270;-75
2022/04/30 01:58:06;;;;;;;18.45;11.13;;;;;;;;;;5089527;28;20039;-75
2022/04/30 02:00:32;;;;;;;18.35;10.68;;;;;;;;;;5089338;28;20228;-76
2022/04/30 02:03:04;;;;;;;17.42;11.70;;;;;;;;;;5089003;28;20036;-76
2022/04/30 02:05:30;;;;;;;18.48;11.15;;;;;;;;;;5089176;28;20035;-76
2022/04/30 02:07:58;;;;;;;16.95;11.07;;;;;;;;;;5071960;28;20036;-76
2022/04/30 02:10:25;;;;;;;16.80;10.40;;;;;;;;;;5089084;28;20040;-76
2022/04/30 02:12:51;;;;;;;17.05;10.55;;;;;;;;;;5089019;28;20245;-75
2022/04/30 02:15:18;;;;;;;18.55;10.13;;;;;;;;;;5089096;28;20415;-75
2022/04/30 02:17:46;;;;;;;17.77;10.75;;;;;;;;;;5071896;28;20058;-75
2022/04/30 02:20:19;;;;;;;16.83;11.00;;;;;;;;;;5079221;28;20511;-75
2022/04/30 02:22:46;;;;;;;16.98;10.80;;;;;;;;;;5075847;28;20450;-75
2022/04/30 02:25:13;;;;;;;16.83;9.70;;;;;;;;;;5087297;28;20070;-75
2022/04/30 02:27:44;;;;;;;16.98;10.20;;;;;;;;;;5088438;28;20040;-75
2022/04/30 02:30:11;;;;;;;17.02;9.45;;;;;;;;;;5071656;28;20070;-75
2022/04/30 02:32:41;;;;;;;19.58;11.30;;;;;;;;;;5088554;28;20262;-75
2022/04/30 02:35:08;;;;;;;16.48;10.88;;;;;;;;;;5088164;28;20048;-75
2022/04/30 02:37:35;;;;;;;15.27;10.50;;;;;;;;;;5088756;28;20036;-75
2022/04/30 02:40:01;;;;;;;20.15;10.35;;;;;;;;;;5088187;28;20133;-75
2022/04/30 02:42:28;;;;;;;17.52;10.73;;;;;;;;;;5088417;28;20040;-75
2022/04/30 02:44:54;;;;;;;17.20;10.48;;;;;;;;;;5088351;28;20655;-75
2022/04/30 02:47:20;;;;;;;16.45;10.43;;;;;;;;;;5088532;28;20036;-76
2022/04/30 02:49:46;;;;;;;17.83;11.02;;;;;;;;;;5088559;28;20044;-75
2022/04/30 02:52:13;;;;;;;16.15;9.95;;;;;;;;;;5088232;28;20040;-75
2022/04/30 02:54:39;;;;;;;15.90;9.70;;;;;;;;;;5088114;28;20499;-75
2022/04/30 02:57:06;;;;;;;18.23;10.77;;;;;;;;;;5088178;28;20147;-75
2022/04/30 03:02:17;;;;;;;17.48;10.00;;;;;;;;;;5088263;28;20109;-75
2022/04/30 03:04:43;;;;;;;18.52;10.93;;;;;;;;;;5088309;28;20036;-75
2022/04/30 03:07:11;;;;;;;18.10;10.32;;;;;;;;;;5088317;28;20039;-75
2022/04/30 03:09:39;;;;;;;16.27;9.75;;;;;;;;;;5087995;28;20044;-75
2022/04/30 03:12:08;;;;;;;16.77;10.13;;;;;;;;;;5087976;28;20052;-75
2022/04/30 03:14:35;;;;;;;16.50;9.80;;;;;;;;;;5071865;28;20522;-75
2022/04/30 03:22:31;;;;;;;16.52;9.68;;;;;;;;;;5072094;28;19927;-75
2022/04/30 03:24:57;;;;;;;16.42;10.18;;;;;;;;;;5087697;28;20039;-75
2022/04/30 03:27:24;;;;;;;17.75;10.15;;;;;;;;;;5087458;28;20059;-75
2022/04/30 03:29:50;;;;;;;17.42;10.25;;;;;;;;;;5085969;28;20032;-75
2022/04/30 03:32:16;;;;;;;15.38;9.80;;;;;;;;;;5076332;28;20051;-75
2022/04/30 03:34:43;;;;;;;16.42;10.02;;;;;;;;;;5087107;28;20052;-75
2022/04/30 03:37:09;;;;;;;14.05;8.88;;;;;;;;;;5087649;28;20052;-75
2022/04/30 03:39:35;;;;;;;14.35;9.35;;;;;;;;;;5087203;28;20126;-75
2022/04/30 03:42:01;;;;;;;15.13;9.88;;;;;;;;;;5087904;28;20495;-75
2022/04/30 03:44:27;;;;;;;15.23;10.15;;;;;;;;;;5087232;28;20165;-75
2022/04/30 03:46:53;;;;;;;14.32;9.98;;;;;;;;;;5085185;28;20078;-75
2022/04/30 03:49:19;;;;;;;13.77;8.50;;;;;;;;;;5082624;28;20131;-75
2022/04/30 03:51:46;;;;;;;14.25;9.77;;;;;;;;;;5087796;28;20126;-75
2022/04/30 03:54:12;;;;;;;13.75;8.82;;;;;;;;;;5087320;28;20068;-75
2022/04/30 03:56:38;;;;;;;15.80;9.15;;;;;;;;;;5087163;28;20451;-75
2022/04/30 03:59:04;;;;;;;13.52;9.63;;;;;;;;;;5087102;28;20076;-75
2022/04/30 04:01:30;;;;;;;14.68;9.30;;;;;;;;;;5086971;28;20036;-75
2022/04/30 04:04:00;;;;;;;15.23;9.27;;;;;;;;;;5087552;28;20519;-75
2022/04/30 04:06:26;;;;;;;15.07;9.48;;;;;;;;;;5087207;28;20044;-75
2022/04/30 04:08:52;;;;;;;16.30;10.25;;;;;;;;;;5070470;28;20079;-75
2022/04/30 04:11:20;;;;;;;16.30;9.77;;;;;;;;;;5087504;28;20039;-75
2022/04/30 04:19:16;;;;;;;19.30;10.43;;;;;;;;;;5087064;28;20048;-75
2022/04/30 04:21:42;;;;;;;16.73;10.45;;;;;;;;;;5087070;28;20043;-75
2022/04/30 04:26:53;;;;;;;15.70;9.85;;;;;;;;;;5087599;28;20493;-75
2022/04/30 04:29:19;;;;;;;16.98;9.48;;;;;;;;;;5087257;28;20040;-75
2022/04/30 04:31:46;;;;;;;15.73;9.75;;;;;;;;;;5086981;28;20040;-75
2022/04/30 04:34:12;;;;;;;16.52;9.23;;;;;;;;;;5086670;28;20425;-75
2022/04/30 04:36:38;;;;;;;16.00;9.30;;;;;;;;;;5087030;28;20396;-75
2022/04/30 04:39:11;;;;;;;15.45;9.75;;;;;;;;;;5087126;28;20449;-75
2022/04/30 04:41:37;;;;;;;15.57;9.90;;;;;;;;;;5089936;28;20047;-75
2022/04/30 04:44:03;;;;;;;14.55;9.55;;;;;;;;;;5090840;28;20047;-75
2022/04/30 04:46:30;;;;;;;14.55;9.30;;;;;;;;;;5090612;28;20364;-76
2022/04/30 04:48:56;;;;;;;14.18;9.35;;;;;;;;;;5090062;28;20090;-76
2022/04/30 04:51:22;;;;;;;18.70;9.43;;;;;;;;;;5090072;28;20511;-76
2022/04/30 04:53:48;;;;;;;17.02;10.20;;;;;;;;;;5090616;28;20039;-76
2022/04/30 04:56:15;;;;;;;14.02;9.05;;;;;;;;;;5073274;28;20065;-76
2022/04/30 04:58:41;;;;;;;13.65;8.95;;;;;;;;;;5090050;28;20051;-75
2022/04/30 05:01:07;;;;;;;14.55;8.75;;;;;;;;;;5090462;28;20448;-76
2022/04/30 05:03:33;;;;;;;16.05;9.35;;;;;;;;;;5085960;28;20521;-76
2022/04/30 05:05:59;;;;;;;18.27;9.50;;;;;;;;;;5090779;28;20125;-76
2022/04/30 05:08:25;;;;;;;13.70;9.15;;;;;;;;;;5090268;28;20048;-76
2022/04/30 05:10:52;;;;;;;16.25;9.82;;;;;;;;;;5090162;28;20131;-75
2022/04/30 05:13:18;;;;;;;15.65;9.35;;;;;;;;;;5090346;28;20040;-75
2022/04/30 05:15:44;;;;;;;14.65;9.73;;;;;;;;;;5090301;28;20043;-76
2022/04/30 05:18:10;;;;;;;18.75;11.02;;;;;;;;;;5090096;28;20122;-76
2022/04/30 05:20:37;;;;;;;16.15;10.15;;;;;;;;;;5090137;28;20044;-76
2022/04/30 05:23:03;;;;;;;15.40;10.30;;;;;;;;;;5089902;28;20101;-76
2022/04/30 05:25:30;;;;;;;15.05;9.88;;;;;;;;;;5089936;28;20051;-76
2022/04/30 05:27:56;;;;;;;19.27;11.65;;;;;;;;;;5090322;28;20510;-76
2022/04/30 05:30:23;;;;;;;18.23;10.55;;;;;;;;;;5089773;28;20048;-76
2022/04/30 05:32:49;;;;;;;18.20;11.05;;;;;;;;;;5089954;28;20066;-76
2022/04/30 05:35:15;;;;;;;19.45;11.73;;;;;;;;;;5089585;28;20109;-76
2022/04/30 05:37:41;;;;;;;17.05;10.20;;;;;;;;;;5089745;28;20056;-76
2022/04/30 05:40:08;;;;;;;17.13;9.80;;;;;;;;;;5089786;28;20072;-76
2022/04/30 05:42:34;;;;;;;17.90;10.93;;;;;;;;;;5089862;28;20078;-76
2022/04/30 05:45:00;;;;;;;19.75;10.60;;;;;;;;;;5090718;28;20040;-76
2022/04/30 05:47:37;;;;;;;17.15;10.43;;;;;;;;;;5089427;28;20062;-76
2022/04/30 05:50:04;;;;;;;18.23;11.63;;;;;;;;;;5087376;28;20082;-76
2022/04/30 05:52:31;;;;;;;18.02;11.98;;;;;;;;;;5089312;28;20052;-76
2022/04/30 05:54:57;;;;;;;17.08;12.25;;;;;;;;;;5089850;28;20035;-76
2022/04/30 05:57:23;;;;;;;18.35;11.45;;;;;;;;;;5085463;28;20072;-76
2022/04/30 05:59:49;;;;;;;17.58;11.57;;;;;;;;;;5083557;28;20043;-76
2022/04/30 06:02:15;;;;;;;18.77;11.85;;;;;;;;;;5069749;28;20603;-76
2022/04/30 06:04:42;;;;;;;18.02;11.50;;;;;;;;;;5093909;28;20043;-77
2022/04/30 06:07:08;;;;;;;18.90;10.90;;;;;;;;;;5071460;28;20048;-77
2022/04/30 06:09:35;;;;;;;16.35;10.50;;;;;;;;;;5068130;28;20118;-77
2022/04/30 06:12:01;;;;;;;17.30;10.32;;;;;;;;;;5086985;28;20040;-77
2022/04/30 06:14:37;;;;;;;16.95;10.38;;;;;;;;;;5087028;28;20378;-77
2022/04/30 06:17:03;;;;;;;15.23;9.90;;;;;;;;;;5089331;28;20044;-77
2022/04/30 06:19:29;;;;;;;14.68;10.13;;;;;;;;;;5089239;28;20040;-77
2022/04/30 06:21:55;;;;;;;19.52;11.23;;;;;;;;;;5089367;28;20028;-77
2022/04/30 06:24:22;;;;;;;15.18;10.43;;;;;;;;;;5068614;28;20039;-76
2022/04/30 06:26:48;;;;;;;18.23;11.07;;;;;;;;;;5085357;28;20315;-77
2022/04/30 06:29:14;;;;;;;21.30;11.88;;;;;;;;;;5086880;28;20064;-77
2022/04/30 06:31:40;;;;;;;18.05;10.88;;;;;;;;;;5089594;28;20036;-76
2022/04/30 06:34:06;;;;;;;15.65;10.38;;;;;;;;;;5072978;28;20110;-77
2022/04/30 06:36:33;;;;;;;15.48;10.18;;;;;;;;;;5089629;28;20051;-78
2022/04/30 06:38:59;;;;;;;16.67;11.02;;;;;;;;;;5085730;28;20036;-78
2022/04/30 06:41:25;;;;;;;17.45;10.10;;;;;;;;;;5080910;28;20506;-78
2022/04/30 06:43:52;;;;;;;18.15;10.02;;;;;;;;;;5086660;28;20043;-77
2022/04/30 06:46:19;;;;;;;14.55;9.70;;;;;;;;;;5088459;28;20047;-77
2022/04/30 06:48:45;;;;;;;15.13;10.10;;;;;;;;;;5093160;28;20043;-77
2022/04/30 06:51:11;;;;;;;15.18;10.43;;;;;;;;;;5094640;28;20051;-77
2022/04/30 06:59:11;;;;;;;18.45;10.40;;;;;;;;;;5085742;28;20411;-77
2022/04/30 07:01:51;;;;;;;16.05;10.18;;;;;;;;;;5087338;28;20036;-77
2022/04/30 07:04:18;;;;;;;15.40;10.70;;;;;;;;;;5092133;28;20047;-77
2022/04/30 07:06:46;;;;;;;20.67;11.23;;;;;;;;;;5094584;28;20039;-77
2022/04/30 07:09:13;;;;;;;15.27;9.75;;;;;;;;;;5098317;28;20113;-77
2022/04/30 07:11:40;;;;;;;17.17;11.00;;;;;;;;;;5096464;28;20040;-77
2022/04/30 07:14:06;;;;;;;18.13;10.93;;;;;;;;;;5098660;28;20043;-77
2022/04/30 07:16:32;;;;;;;17.33;11.27;;;;;;;;;;5098912;28;20470;-80
2022/04/30 07:19:00;;;;;;;14.82;10.23;;;;;;;;;;5081586;28;20105;-80
2022/04/30 07:21:28;;;;;;;13.68;10.70;;;;;;;;;;5097155;28;20468;-80
2022/04/30 07:23:54;;;;;;;18.08;11.30;;;;;;;;;;5096698;28;20292;-80
2022/04/30 07:26:21;;;;;;;17.80;10.85;;;;;;;;;;5098471;28;20036;-80
2022/04/30 07:28:47;;;;;;;13.30;9.93;;;;;;;;;;5095778;28;20376;-80
2022/04/30 07:31:13;;;;;;;17.13;10.68;;;;;;;;;;5096388;28;20085;-80
2022/04/30 07:33:41;;;;;;;17.70;10.93;;;;;;;;;;5095942;28;20546;-80
2022/04/30 07:36:07;;;;;;;19.67;11.25;;;;;;;;;;5081211;28;20127;-79
2022/04/30 07:38:33;;;;;;;20.02;11.30;;;;;;;;;;5093914;28;20438;-79
2022/04/30 07:40:59;;;;;;;15.63;10.23;;;;;;;;;;5080376;28;20032;-80
2022/04/30 07:43:26;;;;;;;20.10;10.35;;;;;;;;;;5098521;28;20064;-80
2022/04/30 07:45:52;;;;;;;15.15;10.27;;;;;;;;;;5097371;28;20035;-79
2022/04/30 07:48:18;;;;;;;16.20;9.50;;;;;;;;;;5094567;28;20070;-80
2022/04/30 07:50:45;;;;;;;14.70;9.13;;;;;;;;;;5095131;28;20054;-80
2022/04/30 07:53:14;;;;;;;16.52;9.48;;;;;;;;;;5086983;28;20102;-79
2022/04/30 07:55:40;;;;;;;13.18;8.13;;;;;;;;;;5086068;28;20097;-78
2022/04/30 07:58:06;;;;;;;15.10;8.15;;;;;;;;;;5085821;28;20036;-80
2022/04/30 08:00:33;;;;;;;13.10;7.85;;;;;;;;;;5086241;28;20036;-80
2022/04/30 08:03:03;;;;;;;14.50;8.30;;;;;;;;;;5086169;28;20363;-78
2022/04/30 08:05:30;;;;;;;12.20;8.38;;;;;;;;;;5085827;28;20342;-78
2022/04/30 08:07:56;;;;;;;17.13;8.82;;;;;;;;;;5085821;28;20033;-79
2022/04/30 08:10:23;;;;;;;15.98;8.35;;;;;;;;;;5069383;28;20042;-79
2022/04/30 08:12:55;;;;;;;12.05;7.65;;;;;;;;;;5085352;28;20039;-79
2022/04/30 08:15:22;;;;;;;12.32;8.18;;;;;;;;;;5083810;28;20482;-79
2022/04/30 08:17:49;;;;;;;13.57;9.05;;;;;;;;;;5079853;28;20032;-78
2022/04/30 08:20:15;;;;;;;13.90;8.45;;;;;;;;;;5092329;28;20051;-80
2022/04/30 08:22:42;;;;;;;12.25;8.15;;;;;;;;;;5076648;28;20032;-78
2022/04/30 08:25:08;;;;;;;12.13;7.50;;;;;;;;;;5087805;28;20040;-78
2022/04/30 08:27:35;;;;;;;12.63;7.55;;;;;;;;;;5093539;28;20408;-78
2022/04/30 08:30:01;;;;;;;12.93;7.15;;;;;;;;;;5093594;28;20517;-78
2022/04/30 08:32:27;;;;;;;13.10;7.57;;;;;;;;;;5067689;28;20044;-79
2022/04/30 08:34:54;;;;;;;13.63;7.60;;;;;;;;;;5056430;28;20518;-78
2022/04/30 08:37:20;;;;;;;14.95;8.15;;;;;;;;;;5056575;28;20040;-79
2022/04/30 08:39:48;;;;;;;13.10;7.47;;;;;;;;;;5065961;28;20073;-80
2022/04/30 08:42:16;;;;;;;14.00;7.75;;;;;;;;;;5092245;28;20036;-78
2022/04/30 08:44:42;;;;;;;11.52;7.93;;;;;;;;;;5093784;28;20040;-77
2022/04/30 08:47:11;;;;;;;12.27;6.72;;;;;;;;;;5090671;28;20044;-78
2022/04/30 08:49:41;;;;;;;11.52;6.15;;;;;;;;;;5093581;28;20043;-78
2022/04/30 08:52:08;;;;;;;10.98;7.63;;;;;;;;;;5093504;28;20483;-78
2022/04/30 08:54:35;;;;;;;10.70;7.15;;;;;;;;;;5087778;28;20141;-79
2022/04/30 08:57:01;;;;;;;11.25;5.95;;;;;;;;;;5085917;28;20048;-80
2022/04/30 08:59:27;;;;;;;10.02;6.65;;;;;;;;;;5064148;28;20050;-79
2022/04/30 09:01:58;;;;;;;12.43;6.80;;;;;;;;;;5071747;28;20047;-80
2022/04/30 09:04:24;;;;;;;13.70;7.88;;;;;;;;;;5088980;28;20051;-81
2022/04/30 09:06:51;;;;;;;13.05;7.35;;;;;;;;;;5090288;28;20552;-80
2022/04/30 09:09:25;;;;;;;168.90;81.72;;;;;;;;;;5090019;28;20078;-80
2022/04/30 09:11:53;;;;;;;57.83;30.00;;;;;;;;;;5073561;28;20134;-80
2022/04/30 09:14:28;;;;;;;10.98;7.07;;;;;;;;;;5088164;28;20370;-79
2022/04/30 09:17:02;;;;;;;10.30;6.18;;;;;;;;;;5083391;28;20136;-79
2022/04/30 09:19:33;;;;;;;9.75;5.97;;;;;;;;;;5091566;28;20052;-80
2022/04/30 09:22:00;;;;;;;11.35;6.40;;;;;;;;;;5072860;28;20085;-78
2022/04/30 09:24:27;;;;;;;10.32;5.93;;;;;;;;;;5089060;28;20043;-80
2022/04/30 09:26:53;;;;;;;10.98;8.40;;;;;;;;;;5071554;28;20431;-80
2022/04/30 09:29:23;;;;;;;12.68;6.75;;;;;;;;;;5090099;28;20559;-79
2022/04/30 09:31:51;;;;;;;10.65;6.32;;;;;;;;;;5072946;28;20036;-79
2022/04/30 09:39:48;;;;;;;10.35;6.55;;;;;;;;;;5088684;28;20041;-80
2022/04/30 09:42:15;;;;;;;10.55;6.57;;;;;;;;;;5070395;28;20032;-80
2022/04/30 09:44:41;;;;;;;10.68;6.25;;;;;;;;;;5087227;28;20429;-81
2022/04/30 09:47:08;;;;;;;10.38;6.55;;;;;;;;;;5084450;28;20040;-80
2022/04/30 09:55:05;;;;;;;14.27;6.53;;;;;;;;;;5077732;28;20048;-80
2022/04/30 09:57:34;;;;;;;13.15;6.78;;;;;;;;;;5088768;28;20489;-80
2022/04/30 10:00:02;;;;;;;10.35;6.45;;;;;;;;;;5089570;28;20199;-81
2022/04/30 10:02:32;;;;;;;11.80;6.82;;;;;;;;;;5080882;28;20044;-81
2022/04/30 10:04:58;;;;;;;12.52;6.47;;;;;;;;;;5084281;28;20075;-80
2022/04/30 10:07:25;;;;;;;11.23;6.57;;;;;;;;;;5089240;28;20044;-79
2022/04/30 10:10:14;;;;;;;10.75;5.07;;;;;;;;;;5072573;28;20040;-80
2022/04/30 10:12:47;;;;;;;9.07;4.93;;;;;;;;;;5089348;28;20177;-80
2022/04/30 10:15:26;;;;;;;9.63;5.30;;;;;;;;;;5072100;28;20039;-79
2022/04/30 10:17:57;;;;;;;9.45;5.43;;;;;;;;;;5089631;28;20040;-78
2022/04/30 10:20:28;;;;;;;11.30;6.13;;;;;;;;;;5088938;28;20060;-79
2022/04/30 10:22:59;;;;;;;11.18;6.53;;;;;;;;;;5072610;28;20032;-80
2022/04/30 10:25:33;;;;;;;9.38;5.95;;;;;;;;;;5071847;28;20036;-79
2022/04/30 10:27:59;;;;;;;13.52;6.50;;;;;;;;;;5088748;28;20032;-80
2022/04/30 10:30:28;;;;;;;10.30;5.93;;;;;;;;;;5088536;28;20043;-80
2022/04/30 10:32:55;;;;;;;10.70;6.20;;;;;;;;;;5088669;28;20062;-80
2022/04/30 10:35:28;;;;;;;11.27;6.32;;;;;;;;;;5071597;28;20100;-81
2022/04/30 10:38:06;;;;;;;9.70;6.25;;;;;;;;;;5088765;28;20039;-80
2022/04/30 10:41:01;;;;;;;13.75;6.93;;;;;;;;;;5088559;28;20149;-80
2022/04/30 10:43:34;;;;;;;12.15;6.82;;;;;;;;;;5079590;28;20052;-80
2022/04/30 10:46:00;;;;;;;10.05;6.90;;;;;;;;;;5088132;28;20135;-80
2022/04/30 10:48:35;;;;;;;11.48;6.45;;;;;;;;;;5088633;28;20044;-79
2022/04/30 10:51:03;;;;;;;10.25;6.63;;;;;;;;;;5088014;28;20074;-80
2022/04/30 10:53:31;;;;;;;15.15;7.53;;;;;;;;;;5071073;28;20088;-81
2022/04/30 10:55:57;;;;;;;9.80;6.20;;;;;;;;;;5071439;28;20407;-80
2022/04/30 10:58:27;;;;;;;9.85;6.47;;;;;;;;;;5088484;28;20507;-80
2022/04/30 11:00:54;;;;;;;12.48;6.60;;;;;;;;;;5071318;28;20039;-79
2022/04/30 11:03:30;;;;;;;10.38;6.85;;;;;;;;;;5088189;28;20036;-81
2022/04/30 11:05:57;;;;;;;11.68;6.75;;;;;;;;;;5087966;28;20044;-81
2022/04/30 11:08:23;;;;;;;11.55;6.88;;;;;;;;;;5087660;28;20130;-81
2022/04/30 11:10:54;;;;;;;9.40;5.85;;;;;;;;;;5088013;28;20259;-81
2022/04/30 11:13:20;;;;;;;11.32;7.90;;;;;;;;;;5069168;28;20032;-79
2022/04/30 11:15:47;;;;;;;9.63;6.05;;;;;;;;;;5071309;28;20036;-81
2022/04/30 11:18:16;;;;;;;13.88;6.78;;;;;;;;;;5071064;28;20032;-81
2022/04/30 11:20:48;;;;;;;10.68;5.60;;;;;;;;;;5088465;28;20438;-80
2022/04/30 11:23:22;;;;;;;12.57;6.53;;;;;;;;;;5087634;28;20123;-81
2022/04/30 11:25:48;;;;;;;8.35;5.90;;;;;;;;;;5071380;28;20184;-80
2022/04/30 11:28:15;;;;;;;10.63;5.65;;;;;;;;;;5071513;28;20036;-81
2022/04/30 11:30:46;;;;;;;10.88;7.40;;;;;;;;;;5078057;28;20036;-81
2022/04/30 11:33:12;;;;;;;8.82;5.55;;;;;;;;;;5080839;28;20035;-81
2022/04/30 11:35:39;;;;;;;11.32;6.15;;;;;;;;;;5087089;28;20051;-81
2022/04/30 11:38:14;;;;;;;9.52;5.45;;;;;;;;;;5087537;28;20515;-80
2022/04/30 11:40:43;;;;;;;7.70;4.72;;;;;;;;;;5086042;28;20043;-81
2022/04/30 11:43:09;;;;;;;8.68;4.95;;;;;;;;;;5070171;28;20059;-81
2022/04/30 11:45:36;;;;;;;12.38;4.88;;;;;;;;;;5086791;28;20039;-82
2022/04/30 11:48:03;;;;;;;8.93;5.47;;;;;;;;;;5081069;28;20032;-80
2022/04/30 11:50:30;;;;;;;9.90;6.07;;;;;;;;;;5070370;28;20132;-80
2022/04/30 11:52:56;;;;;;;9.90;6.00;;;;;;;;;;5070875;28;20036;-80
2022/04/30 11:55:23;;;;;;;9.88;5.93;;;;;;;;;;5070551;28;20076;-81
2022/04/30 11:57:50;;;;;;;10.02;5.60;;;;;;;;;;5073402;28;20042;-81
2022/04/30 12:00:17;;;;;;;17.35;12.35;;;;;;;;;;5097806;28;20044;-81
2022/04/30 12:02:48;;;;;;;11.05;6.57;;;;;;;;;;5091702;28;20059;-81
2022/04/30 12:05:14;;;;;;;10.70;6.07;;;;;;;;;;5076568;28;20031;-81
2022/04/30 12:07:40;;;;;;;11.07;8.10;;;;;;;;;;5089616;28;20036;-80
2022/04/30 12:10:24;;;;;;;9.80;6.57;;;;;;;;;;5089440;28;20407;-82
2022/04/30 12:12:53;;;;;;;19.48;15.68;;;;;;;;;;5087144;28;20048;-80
2022/04/30 12:15:27;;;;;;;8.75;6.35;;;;;;;;;;5070591;28;20123;-80
2022/04/30 12:27:02;;;;;;;12.73;7.03;;;;;;;;;;5089191;28;20040;-81
2022/04/30 12:29:29;;;;;;;11.38;6.93;;;;;;;;;;5089846;28;20076;-80
2022/04/30 12:31:56;;;;;;;15.70;7.00;;;;;;;;;;5089770;28;20040;-80
2022/04/30 12:34:25;;;;;;;10.95;6.75;;;;;;;;;;5072429;28;20056;-80
2022/04/30 12:36:55;;;;;;;11.43;6.70;;;;;;;;;;5090031;28;20095;-80
2022/04/30 12:39:23;;;;;;;18.77;6.80;;;;;;;;;;5072767;28;20066;-79
2022/04/30 12:41:50;;;;;;;11.63;5.90;;;;;;;;;;5086998;28;20551;-81
2022/04/30 12:44:16;;;;;;;10.93;6.68;;;;;;;;;;5086305;28;20075;-81
2022/04/30 12:46:45;;;;;;;12.65;6.38;;;;;;;;;;5086546;28;20043;-81
2022/04/30 12:49:12;;;;;;;9.68;6.13;;;;;;;;;;5070002;28;20051;-81
2022/04/30 12:51:39;;;;;;;11.02;5.93;;;;;;;;;;5070379;28;20254;-79
2022/04/30 12:54:11;;;;;;;11.73;6.10;;;;;;;;;;5086758;28;20043;-81
2022/04/30 12:56:39;;;;;;;9.40;6.75;;;;;;;;;;5084335;28;20587;-81
2022/04/30 12:59:05;;;;;;;12.05;6.40;;;;;;;;;;5069209;28;20063;-82
2022/04/30 13:01:34;;;;;;;9.48;6.55;;;;;;;;;;5087001;28;20040;-82
2022/04/30 13:04:00;;;;;;;10.88;7.15;;;;;;;;;;5090248;28;20036;-80
2022/04/30 13:06:27;;;;;;;11.05;6.60;;;;;;;;;;5072276;28;20530;-80
2022/04/30 13:14:22;;;;;;;10.13;6.72;;;;;;;;;;5073685;28;20048;-81
2022/04/30 13:16:50;;;;;;;11.57;6.22;;;;;;;;;;5089553;28;20126;-81
2022/04/30 13:19:16;;;;;;;9.75;6.07;;;;;;;;;;5088405;28;20450;-81
2022/04/30 13:21:46;;;;;;;10.95;5.88;;;;;;;;;;5088473;28;20126;-81
2022/04/30 13:24:14;;;;;;;10.00;6.53;;;;;;;;;;5072071;28;20040;-82
2022/04/30 13:26:40;;;;;;;12.85;7.00;;;;;;;;;;5071942;28;20048;-80
2022/04/30 13:29:07;;;;;;;10.30;6.60;;;;;;;;;;5071369;28;20046;-81
2022/04/30 13:31:33;;;;;;;9.93;6.07;;;;;;;;;;5087152;28;20083;-79
2022/04/30 13:33:59;;;;;;;9.13;6.05;;;;;;;;;;5090572;28;20558;-80
2022/04/30 13:36:25;;;;;;;12.32;6.70;;;;;;;;;;5073618;28;20051;-81
2022/04/30 13:38:52;;;;;;;10.30;6.30;;;;;;;;;;5089489;28;20076;-82
2022/04/30 13:41:18;;;;;;;10.40;5.65;;;;;;;;;;5088694;28;20402;-81
2022/04/30 13:43:44;;;;;;;8.40;6.68;;;;;;;;;;5091487;28;20032;-80
2022/04/30 13:46:10;;;;;;;9.00;6.45;;;;;;;;;;5073004;28;20032;-79
2022/04/30 13:48:37;;;;;;;9.40;6.10;;;;;;;;;;5089205;28;20337;-80
2022/04/30 13:51:04;;;;;;;10.55;6.45;;;;;;;;;;5090216;28;20093;-80
2022/04/30 13:53:31;;;;;;;14.45;11.73;;;;;;;;;;5090762;28;20054;-80
2022/04/30 13:55:58;;;;;;;10.35;6.60;;;;;;;;;;5089850;28;20036;-81
2022/04/30 13:58:24;;;;;;;15.13;12.55;;;;;;;;;;5089031;28;20165;-81
2022/04/30 14:00:50;;;;;;;9.65;5.82;;;;;;;;;;5089894;28;20169;-82
2022/04/30 14:03:17;;;;;;;9.68;5.80;;;;;;;;;;5089323;28;20036;-81
2022/04/30 14:05:44;;;;;;;9.90;6.47;;;;;;;;;;5089422;28;20040;-80
2022/04/30 14:08:12;;;;;;;11.77;7.28;;;;;;;;;;5088813;28;20363;-82
2022/04/30 14:10:38;;;;;;;11.30;6.85;;;;;;;;;;5091784;28;20044;-82
2022/04/30 14:15:56;;;;;;;9.55;6.00;;;;;;;;;;5090446;28;20063;-79
2022/04/30 14:18:25;;;;;;;10.95;6.05;;;;;;;;;;5073475;28;20036;-81
2022/04/30 14:21:08;;;;;;;10.00;6.20;;;;;;;;;;5072420;28;20090;-82
2022/04/30 14:23:41;;;;;;;8.30;5.15;;;;;;;;;;5091150;28;20039;-79
2022/04/30 14:26:07;;;;;;;9.85;6.50;;;;;;;;;;5089310;28;20040;-81
2022/04/30 14:28:33;;;;;;;8.55;6.20;;;;;;;;;;5089605;28;20096;-81
2022/04/30 14:31:01;;;;;;;11.75;6.53;;;;;;;;;;5088440;28;20134;-79
2022/04/30 14:33:28;;;;;;;10.40;6.03;;;;;;;;;;5091481;28;20513;-80
2022/04/30 14:35:54;;;;;;;9.13;5.70;;;;;;;;;;5088469;28;20503;-79
2022/04/30 14:38:21;;;;;;;11.10;6.85;;;;;;;;;;5087982;28;20040;-78
2022/04/30 14:40:47;;;;;;;15.07;6.55;;;;;;;;;;5092931;28;20501;-81
2022/04/30 14:43:13;;;;;;;19.25;6.85;;;;;;;;;;5092881;28;20040;-80
2022/04/30 14:45:41;;;;;;;9.77;5.55;;;;;;;;;;5092600;28;20046;-81
2022/04/30 14:48:08;;;;;;;9.20;5.43;;;;;;;;;;5093343;28;20450;-81
2022/04/30 14:50:34;;;;;;;10.45;6.20;;;;;;;;;;5092488;28;20088;-81
2022/04/30 14:53:00;;;;;;;11.77;5.95;;;;;;;;;;5075081;28;20069;-81
2022/04/30 14:55:28;;;;;;;10.45;6.07;;;;;;;;;;5091681;28;20050;-81
2022/04/30 14:57:55;;;;;;;9.60;5.53;;;;;;;;;;5091257;28;20502;-82
2022/04/30 15:00:21;;;;;;;11.52;6.00;;;;;;;;;;5090668;28;20050;-81
2022/04/30 15:02:47;;;;;;;10.23;6.45;;;;;;;;;;5075049;28;20067;-81
2022/04/30 15:05:14;;;;;;;10.35;5.70;;;;;;;;;;5091534;28;20031;-81
2022/04/30 15:07:40;;;;;;;14.13;8.98;;;;;;;;;;5090575;28;20046;-81
2022/04/30 15:10:07;;;;;;;10.95;6.75;;;;;;;;;;5091062;28;20028;-81
2022/04/30 15:12:35;;;;;;;14.85;11.60;;;;;;;;;;5090447;28;20051;-80
2022/04/30 15:15:03;;;;;;;10.68;7.38;;;;;;;;;;5097323;27;20062;-79
2022/04/30 15:17:29;;;;;;;22.02;19.00;;;;;;;;;;5080995;28;20077;-81
2022/04/30 15:19:55;;;;;;;19.02;14.35;;;;;;;;;;5091288;28;20044;-80
2022/04/30 15:22:21;;;;;;;11.95;7.40;;;;;;;;;;5091779;28;20088;-80
2022/04/30 15:24:47;;;;;;;12.80;8.00;;;;;;;;;;5091520;28;20135;-79